sensor_id;sensor_type;location;lat;lon;timestamp;P1;durP1;ratioP1;P2;durP2;ratioP2
37677;SDS011;23517;50.390;8.616;2023-05-29T00:00:34;7.82;;;2.65;;
37677;SDS011;23517;50.390;8.616;2023-05-29T00:03:00;2.75;;;2.35;;
37677;SDS011;23517;50.390;8.616;2023-05-29T00:05:28;3.55;;;2.38;;
37677;SDS011;23517;50.390;8.616;2023-05-29T00:07:54;8.13;;;2.78;;
37677;SDS011;23517;50.390;8.616;2023-05-29T00:10:21;7.10;;;3.03;;
37677;SDS011;23517;50.390;8.616;2023-05-29T00:12:48;4.63;;;2.60;;
37677;SDS011;23517;50.390;8.616;2023-05-29T00:15:15;3.53;;;2.42;;
37677;SDS011;23517;50.390;8.616;2023-05-29T00:17:41;5.65;;;2.63;;
37677;SDS011;23517;50.390;8.616;2023-05-29T00:20:09;6.15;;;3.00;;
37677;SDS011;23517;50.390;8.616;2023-05-29T00:22:38;7.88;;;2.75;;
37677;SDS011;23517;50.390;8.616;2023-05-29T00:25:05;6.38;;;2.72;;
37677;SDS011;23517;50.390;8.616;2023-05-29T00:27:33;5.40;;;2.63;;
37677;SDS011;23517;50.390;8.616;2023-05-29T00:30:00;7.30;;;2.70;;
37677;SDS011;23517;50.390;8.616;2023-05-29T00:32:29;4.85;;;3.05;;
37677;SDS011;23517;50.390;8.616;2023-05-29T00:34:56;3.42;;;2.42;;
37677;SDS011;23517;50.390;8.616;2023-05-29T00:37:22;5.80;;;2.70;;
37677;SDS011;23517;50.390;8.616;2023-05-29T00:39:49;3.25;;;2.28;;
37677;SDS011;23517;50.390;8.616;2023-05-29T00:42:16;5.05;;;2.40;;
37677;SDS011;23517;50.390;8.616;2023-05-29T00:44:43;6.57;;;2.63;;
37677;SDS011;23517;50.390;8.616;2023-05-29T00:47:12;5.72;;;2.85;;
37677;SDS011;23517;50.390;8.616;2023-05-29T00:49:39;3.78;;;2.45;;
37677;SDS011;23517;50.390;8.616;2023-05-29T00:52:06;4.93;;;2.83;;
37677;SDS011;23517;50.390;8.616;2023-05-29T00:54:35;4.82;;;2.70;;
37677;SDS011;23517;50.390;8.616;2023-05-29T00:57:03;5.90;;;2.40;;
37677;SDS011;23517;50.390;8.616;2023-05-29T00:59:32;5.90;;;2.78;;
37677;SDS011;23517;50.390;8.616;2023-05-29T01:01:59;4.68;;;2.72;;
37677;SDS011;23517;50.390;8.616;2023-05-29T01:04:28;4.28;;;2.88;;
37677;SDS011;23517;50.390;8.616;2023-05-29T01:06:56;5.80;;;3.42;;
37677;SDS011;23517;50.390;8.616;2023-05-29T01:09:23;5.60;;;2.97;;
37677;SDS011;23517;50.390;8.616;2023-05-29T01:12:03;5.18;;;2.67;;
37677;SDS011;23517;50.390;8.616;2023-05-29T01:15:00;9.15;;;3.60;;
37677;SDS011;23517;50.390;8.616;2023-05-29T01:17:53;9.77;;;5.07;;
37677;SDS011;23517;50.390;8.616;2023-05-29T01:20:38;10.73;;;4.32;;
37677;SDS011;23517;50.390;8.616;2023-05-29T01:23:20;7.93;;;3.25;;
37677;SDS011;23517;50.390;8.616;2023-05-29T01:29:14;6.55;;;3.00;;
37677;SDS011;23517;50.390;8.616;2023-05-29T01:31:46;7.88;;;4.28;;
37677;SDS011;23517;50.390;8.616;2023-05-29T01:34:14;7.53;;;4.03;;
37677;SDS011;23517;50.390;8.616;2023-05-29T01:36:40;8.48;;;3.67;;
37677;SDS011;23517;50.390;8.616;2023-05-29T01:39:07;5.80;;;3.58;;
37677;SDS011;23517;50.390;8.616;2023-05-29T01:41:37;8.23;;;4.38;;
37677;SDS011;23517;50.390;8.616;2023-05-29T01:44:05;7.00;;;3.40;;
37677;SDS011;23517;50.390;8.616;2023-05-29T01:46:35;9.27;;;3.60;;
37677;SDS011;23517;50.390;8.616;2023-05-29T01:49:04;6.13;;;3.60;;
37677;SDS011;23517;50.390;8.616;2023-05-29T01:51:31;4.88;;;2.90;;
37677;SDS011;23517;50.390;8.616;2023-05-29T01:53:58;9.10;;;3.38;;
37677;SDS011;23517;50.390;8.616;2023-05-29T01:56:27;6.93;;;3.30;;
37677;SDS011;23517;50.390;8.616;2023-05-29T01:58:56;5.22;;;2.90;;
37677;SDS011;23517;50.390;8.616;2023-05-29T02:01:24;5.40;;;2.88;;
37677;SDS011;23517;50.390;8.616;2023-05-29T02:03:51;9.90;;;3.53;;
37677;SDS011;23517;50.390;8.616;2023-05-29T02:06:18;5.38;;;2.90;;
37677;SDS011;23517;50.390;8.616;2023-05-29T02:08:45;6.28;;;2.95;;
37677;SDS011;23517;50.390;8.616;2023-05-29T02:11:13;6.38;;;2.67;;
37677;SDS011;23517;50.390;8.616;2023-05-29T02:13:41;10.50;;;3.13;;
37677;SDS011;23517;50.390;8.616;2023-05-29T02:16:08;7.13;;;3.10;;
37677;SDS011;23517;50.390;8.616;2023-05-29T02:18:35;5.90;;;2.67;;
37677;SDS011;23517;50.390;8.616;2023-05-29T02:21:01;9.15;;;3.35;;
37677;SDS011;23517;50.390;8.616;2023-05-29T02:23:28;7.88;;;3.30;;
37677;SDS011;23517;50.390;8.616;2023-05-29T02:25:55;7.07;;;3.65;;
37677;SDS011;23517;50.390;8.616;2023-05-29T02:28:22;8.98;;;3.53;;
37677;SDS011;23517;50.390;8.616;2023-05-29T02:30:49;5.63;;;3.40;;
37677;SDS011;23517;50.390;8.616;2023-05-29T02:33:16;8.68;;;3.53;;
37677;SDS011;23517;50.390;8.616;2023-05-29T02:35:43;7.70;;;3.35;;
37677;SDS011;23517;50.390;8.616;2023-05-29T02:38:09;6.85;;;3.38;;
37677;SDS011;23517;50.390;8.616;2023-05-29T02:40:36;8.30;;;3.63;;
37677;SDS011;23517;50.390;8.616;2023-05-29T02:43:03;8.15;;;3.67;;
37677;SDS011;23517;50.390;8.616;2023-05-29T02:45:31;9.90;;;3.70;;
37677;SDS011;23517;50.390;8.616;2023-05-29T02:47:58;8.73;;;3.85;;
37677;SDS011;23517;50.390;8.616;2023-05-29T02:50:31;10.30;;;3.88;;
37677;SDS011;23517;50.390;8.616;2023-05-29T02:52:57;11.32;;;3.83;;
37677;SDS011;23517;50.390;8.616;2023-05-29T02:55:24;10.00;;;3.75;;
37677;SDS011;23517;50.390;8.616;2023-05-29T02:57:58;6.90;;;3.60;;
37677;SDS011;23517;50.390;8.616;2023-05-29T03:00:25;6.15;;;3.40;;
37677;SDS011;23517;50.390;8.616;2023-05-29T03:02:54;6.15;;;3.75;;
37677;SDS011;23517;50.390;8.616;2023-05-29T03:05:21;7.93;;;3.90;;
37677;SDS011;23517;50.390;8.616;2023-05-29T03:07:48;11.75;;;3.75;;
37677;SDS011;23517;50.390;8.616;2023-05-29T03:10:14;11.77;;;4.20;;
37677;SDS011;23517;50.390;8.616;2023-05-29T03:12:43;9.43;;;3.80;;
37677;SDS011;23517;50.390;8.616;2023-05-29T03:15:10;8.18;;;3.42;;
37677;SDS011;23517;50.390;8.616;2023-05-29T03:17:38;9.63;;;3.88;;
37677;SDS011;23517;50.390;8.616;2023-05-29T03:20:05;10.77;;;4.53;;
37677;SDS011;23517;50.390;8.616;2023-05-29T03:22:34;8.70;;;3.95;;
37677;SDS011;23517;50.390;8.616;2023-05-29T03:25:02;9.80;;;4.03;;
37677;SDS011;23517;50.390;8.616;2023-05-29T03:27:30;14.07;;;4.30;;
37677;SDS011;23517;50.390;8.616;2023-05-29T03:29:58;8.57;;;3.55;;
37677;SDS011;23517;50.390;8.616;2023-05-29T03:32:25;9.18;;;3.75;;
37677;SDS011;23517;50.390;8.616;2023-05-29T03:34:52;13.60;;;4.40;;
37677;SDS011;23517;50.390;8.616;2023-05-29T03:37:18;8.13;;;3.30;;
37677;SDS011;23517;50.390;8.616;2023-05-29T03:39:45;7.10;;;3.70;;
37677;SDS011;23517;50.390;8.616;2023-05-29T03:42:12;7.68;;;3.35;;
37677;SDS011;23517;50.390;8.616;2023-05-29T03:44:39;11.70;;;4.10;;
37677;SDS011;23517;50.390;8.616;2023-05-29T03:47:06;9.45;;;3.83;;
37677;SDS011;23517;50.390;8.616;2023-05-29T03:49:35;9.30;;;3.90;;
37677;SDS011;23517;50.390;8.616;2023-05-29T03:52:01;7.55;;;3.67;;
37677;SDS011;23517;50.390;8.616;2023-05-29T03:54:28;9.13;;;3.60;;
37677;SDS011;23517;50.390;8.616;2023-05-29T03:56:55;15.32;;;4.00;;
37677;SDS011;23517;50.390;8.616;2023-05-29T03:59:22;9.55;;;3.90;;
37677;SDS011;23517;50.390;8.616;2023-05-29T04:01:49;10.38;;;4.03;;
37677;SDS011;23517;50.390;8.616;2023-05-29T04:04:15;6.90;;;3.72;;
37677;SDS011;23517;50.390;8.616;2023-05-29T04:06:42;8.60;;;4.20;;
37677;SDS011;23517;50.390;8.616;2023-05-29T04:09:09;9.27;;;3.80;;
37677;SDS011;23517;50.390;8.616;2023-05-29T04:11:36;9.55;;;3.97;;
37677;SDS011;23517;50.390;8.616;2023-05-29T04:14:04;6.25;;;3.58;;
37677;SDS011;23517;50.390;8.616;2023-05-29T04:16:31;8.80;;;4.32;;
37677;SDS011;23517;50.390;8.616;2023-05-29T04:19:00;8.15;;;4.00;;
37677;SDS011;23517;50.390;8.616;2023-05-29T04:21:27;8.57;;;3.97;;
37677;SDS011;23517;50.390;8.616;2023-05-29T04:23:53;11.13;;;4.30;;
37677;SDS011;23517;50.390;8.616;2023-05-29T04:26:21;8.32;;;4.47;;
37677;SDS011;23517;50.390;8.616;2023-05-29T04:28:54;13.48;;;4.10;;
37677;SDS011;23517;50.390;8.616;2023-05-29T04:31:26;9.65;;;4.20;;
37677;SDS011;23517;50.390;8.616;2023-05-29T04:33:53;11.55;;;4.00;;
37677;SDS011;23517;50.390;8.616;2023-05-29T04:36:24;10.48;;;4.30;;
37677;SDS011;23517;50.390;8.616;2023-05-29T04:38:55;8.05;;;3.47;;
37677;SDS011;23517;50.390;8.616;2023-05-29T04:41:23;8.65;;;4.18;;
37677;SDS011;23517;50.390;8.616;2023-05-29T04:43:55;10.88;;;4.18;;
37677;SDS011;23517;50.390;8.616;2023-05-29T04:46:23;5.32;;;3.25;;
37677;SDS011;23517;50.390;8.616;2023-05-29T04:48:51;8.40;;;3.55;;
37677;SDS011;23517;50.390;8.616;2023-05-29T04:51:21;8.25;;;3.90;;
37677;SDS011;23517;50.390;8.616;2023-05-29T04:53:49;9.00;;;3.53;;
37677;SDS011;23517;50.390;8.616;2023-05-29T04:56:19;7.63;;;3.60;;
37677;SDS011;23517;50.390;8.616;2023-05-29T04:58:46;7.55;;;3.70;;
37677;SDS011;23517;50.390;8.616;2023-05-29T05:01:13;9.70;;;3.92;;
37677;SDS011;23517;50.390;8.616;2023-05-29T05:03:40;9.88;;;4.13;;
37677;SDS011;23517;50.390;8.616;2023-05-29T05:06:07;7.68;;;3.75;;
37677;SDS011;23517;50.390;8.616;2023-05-29T05:08:34;9.93;;;3.65;;
37677;SDS011;23517;50.390;8.616;2023-05-29T05:11:01;9.85;;;3.95;;
37677;SDS011;23517;50.390;8.616;2023-05-29T05:13:29;7.05;;;3.58;;
37677;SDS011;23517;50.390;8.616;2023-05-29T05:15:55;9.88;;;4.13;;
37677;SDS011;23517;50.390;8.616;2023-05-29T05:18:22;9.45;;;3.70;;
37677;SDS011;23517;50.390;8.616;2023-05-29T05:20:49;9.88;;;3.80;;
37677;SDS011;23517;50.390;8.616;2023-05-29T05:23:16;8.00;;;3.70;;
37677;SDS011;23517;50.390;8.616;2023-05-29T05:25:42;8.73;;;3.65;;
37677;SDS011;23517;50.390;8.616;2023-05-29T05:28:09;6.75;;;3.60;;
37677;SDS011;23517;50.390;8.616;2023-05-29T05:30:36;9.00;;;3.58;;
37677;SDS011;23517;50.390;8.616;2023-05-29T05:33:02;9.20;;;3.72;;
37677;SDS011;23517;50.390;8.616;2023-05-29T05:35:30;9.65;;;3.85;;
37677;SDS011;23517;50.390;8.616;2023-05-29T05:37:57;5.57;;;3.15;;
37677;SDS011;23517;50.390;8.616;2023-05-29T05:40:27;6.90;;;3.70;;
37677;SDS011;23517;50.390;8.616;2023-05-29T05:42:53;7.43;;;3.35;;
37677;SDS011;23517;50.390;8.616;2023-05-29T05:45:20;8.25;;;3.50;;
37677;SDS011;23517;50.390;8.616;2023-05-29T05:47:47;5.72;;;3.20;;
37677;SDS011;23517;50.390;8.616;2023-05-29T05:50:14;7.72;;;3.00;;
37677;SDS011;23517;50.390;8.616;2023-05-29T05:52:41;10.77;;;3.15;;
37677;SDS011;23517;50.390;8.616;2023-05-29T05:55:08;7.03;;;3.03;;
37677;SDS011;23517;50.390;8.616;2023-05-29T05:57:35;8.32;;;3.50;;
37677;SDS011;23517;50.390;8.616;2023-05-29T06:00:03;6.90;;;3.00;;
37677;SDS011;23517;50.390;8.616;2023-05-29T06:02:38;6.85;;;3.38;;
37677;SDS011;23517;50.390;8.616;2023-05-29T06:05:08;4.88;;;2.67;;
37677;SDS011;23517;50.390;8.616;2023-05-29T06:07:35;8.85;;;2.97;;
37677;SDS011;23517;50.390;8.616;2023-05-29T06:10:03;6.15;;;2.53;;
37677;SDS011;23517;50.390;8.616;2023-05-29T06:12:30;6.82;;;2.88;;
37677;SDS011;23517;50.390;8.616;2023-05-29T06:14:57;6.43;;;2.85;;
37677;SDS011;23517;50.390;8.616;2023-05-29T06:17:24;6.63;;;2.88;;
37677;SDS011;23517;50.390;8.616;2023-05-29T06:19:58;5.45;;;2.67;;
37677;SDS011;23517;50.390;8.616;2023-05-29T06:22:25;5.93;;;2.85;;
37677;SDS011;23517;50.390;8.616;2023-05-29T06:24:51;9.00;;;3.22;;
37677;SDS011;23517;50.390;8.616;2023-05-29T06:27:18;4.95;;;2.75;;
37677;SDS011;23517;50.390;8.616;2023-05-29T06:29:46;10.30;;;3.45;;
37677;SDS011;23517;50.390;8.616;2023-05-29T06:32:12;8.25;;;2.58;;
37677;SDS011;23517;50.390;8.616;2023-05-29T06:34:39;6.50;;;2.88;;
37677;SDS011;23517;50.390;8.616;2023-05-29T06:37:06;4.07;;;2.42;;
37677;SDS011;23517;50.390;8.616;2023-05-29T06:39:33;5.38;;;2.92;;
37677;SDS011;23517;50.390;8.616;2023-05-29T06:41:59;7.10;;;2.85;;
37677;SDS011;23517;50.390;8.616;2023-05-29T06:44:27;6.15;;;2.85;;
37677;SDS011;23517;50.390;8.616;2023-05-29T06:46:53;9.68;;;3.08;;
37677;SDS011;23517;50.390;8.616;2023-05-29T06:49:20;5.25;;;2.65;;
37677;SDS011;23517;50.390;8.616;2023-05-29T06:51:47;5.82;;;2.50;;
37677;SDS011;23517;50.390;8.616;2023-05-29T06:54:24;6.18;;;2.78;;
37677;SDS011;23517;50.390;8.616;2023-05-29T06:56:51;8.98;;;2.58;;
37677;SDS011;23517;50.390;8.616;2023-05-29T06:59:34;6.40;;;2.75;;
37677;SDS011;23517;50.390;8.616;2023-05-29T07:02:01;9.02;;;3.00;;
37677;SDS011;23517;50.390;8.616;2023-05-29T07:04:28;8.60;;;2.63;;
37677;SDS011;23517;50.390;8.616;2023-05-29T07:06:55;8.65;;;3.20;;
37677;SDS011;23517;50.390;8.616;2023-05-29T07:09:22;8.30;;;2.88;;
37677;SDS011;23517;50.390;8.616;2023-05-29T07:11:48;8.48;;;3.10;;
37677;SDS011;23517;50.390;8.616;2023-05-29T07:14:15;6.63;;;2.78;;
37677;SDS011;23517;50.390;8.616;2023-05-29T07:16:42;5.85;;;2.55;;
37677;SDS011;23517;50.390;8.616;2023-05-29T07:19:09;7.43;;;2.75;;
37677;SDS011;23517;50.390;8.616;2023-05-29T07:21:46;6.57;;;2.78;;
37677;SDS011;23517;50.390;8.616;2023-05-29T07:24:13;4.40;;;2.20;;
37677;SDS011;23517;50.390;8.616;2023-05-29T07:26:39;6.50;;;2.70;;
37677;SDS011;23517;50.390;8.616;2023-05-29T07:29:06;5.07;;;2.83;;
37677;SDS011;23517;50.390;8.616;2023-05-29T07:31:33;7.28;;;2.72;;
37677;SDS011;23517;50.390;8.616;2023-05-29T07:34:00;6.55;;;3.00;;
37677;SDS011;23517;50.390;8.616;2023-05-29T07:36:30;4.90;;;2.65;;
37677;SDS011;23517;50.390;8.616;2023-05-29T07:38:59;6.70;;;2.40;;
37677;SDS011;23517;50.390;8.616;2023-05-29T07:41:26;7.82;;;2.85;;
37677;SDS011;23517;50.390;8.616;2023-05-29T07:43:53;6.03;;;3.13;;
37677;SDS011;23517;50.390;8.616;2023-05-29T07:46:21;5.38;;;2.42;;
37677;SDS011;23517;50.390;8.616;2023-05-29T07:48:48;5.20;;;2.78;;
37677;SDS011;23517;50.390;8.616;2023-05-29T07:51:15;5.30;;;2.65;;
37677;SDS011;23517;50.390;8.616;2023-05-29T07:53:43;9.82;;;3.28;;
37677;SDS011;23517;50.390;8.616;2023-05-29T07:56:12;6.15;;;2.53;;
37677;SDS011;23517;50.390;8.616;2023-05-29T07:58:39;5.90;;;2.63;;
37677;SDS011;23517;50.390;8.616;2023-05-29T08:01:07;5.20;;;2.83;;
37677;SDS011;23517;50.390;8.616;2023-05-29T08:03:34;5.47;;;3.10;;
37677;SDS011;23517;50.390;8.616;2023-05-29T08:06:01;10.20;;;3.08;;
37677;SDS011;23517;50.390;8.616;2023-05-29T08:08:27;9.18;;;3.17;;
37677;SDS011;23517;50.390;8.616;2023-05-29T08:10:54;7.03;;;2.70;;
37677;SDS011;23517;50.390;8.616;2023-05-29T08:13:22;6.72;;;2.70;;
37677;SDS011;23517;50.390;8.616;2023-05-29T08:15:49;8.27;;;2.70;;
37677;SDS011;23517;50.390;8.616;2023-05-29T08:18:15;6.45;;;2.85;;
37677;SDS011;23517;50.390;8.616;2023-05-29T08:20:42;4.63;;;2.90;;
37677;SDS011;23517;50.390;8.616;2023-05-29T08:23:10;6.53;;;3.03;;
37677;SDS011;23517;50.390;8.616;2023-05-29T08:25:37;6.38;;;3.10;;
37677;SDS011;23517;50.390;8.616;2023-05-29T08:28:04;5.32;;;2.60;;
37677;SDS011;23517;50.390;8.616;2023-05-29T08:30:31;8.13;;;2.95;;
37677;SDS011;23517;50.390;8.616;2023-05-29T08:32:58;7.35;;;2.75;;
37677;SDS011;23517;50.390;8.616;2023-05-29T08:35:24;6.00;;;3.00;;
37677;SDS011;23517;50.390;8.616;2023-05-29T08:37:51;8.43;;;2.65;;
37677;SDS011;23517;50.390;8.616;2023-05-29T08:40:18;6.00;;;2.70;;
37677;SDS011;23517;50.390;8.616;2023-05-29T08:42:56;4.13;;;2.55;;
37677;SDS011;23517;50.390;8.616;2023-05-29T08:45:26;10.43;;;2.45;;
37677;SDS011;23517;50.390;8.616;2023-05-29T08:47:55;8.63;;;2.55;;
37677;SDS011;23517;50.390;8.616;2023-05-29T08:50:25;8.30;;;2.97;;
37677;SDS011;23517;50.390;8.616;2023-05-29T08:52:52;5.00;;;2.58;;
37677;SDS011;23517;50.390;8.616;2023-05-29T08:55:21;6.65;;;2.65;;
37677;SDS011;23517;50.390;8.616;2023-05-29T08:57:48;8.60;;;2.72;;
37677;SDS011;23517;50.390;8.616;2023-05-29T09:00:16;5.78;;;2.60;;
37677;SDS011;23517;50.390;8.616;2023-05-29T09:02:44;7.75;;;2.80;;
37677;SDS011;23517;50.390;8.616;2023-05-29T09:05:11;7.07;;;3.00;;
37677;SDS011;23517;50.390;8.616;2023-05-29T09:07:39;7.88;;;3.00;;
37677;SDS011;23517;50.390;8.616;2023-05-29T09:10:07;5.82;;;2.20;;
37677;SDS011;23517;50.390;8.616;2023-05-29T09:12:35;5.50;;;2.45;;
37677;SDS011;23517;50.390;8.616;2023-05-29T09:15:03;6.90;;;3.17;;
37677;SDS011;23517;50.390;8.616;2023-05-29T09:17:56;7.05;;;2.42;;
37677;SDS011;23517;50.390;8.616;2023-05-29T09:20:24;6.72;;;2.70;;
37677;SDS011;23517;50.390;8.616;2023-05-29T09:23:13;4.88;;;2.55;;
37677;SDS011;23517;50.390;8.616;2023-05-29T09:25:42;6.70;;;2.58;;
37677;SDS011;23517;50.390;8.616;2023-05-29T09:28:09;5.82;;;2.50;;
37677;SDS011;23517;50.390;8.616;2023-05-29T09:30:45;6.68;;;2.63;;
37677;SDS011;23517;50.390;8.616;2023-05-29T09:33:16;4.93;;;2.63;;
37677;SDS011;23517;50.390;8.616;2023-05-29T09:35:48;6.68;;;2.53;;
37677;SDS011;23517;50.390;8.616;2023-05-29T09:38:19;6.15;;;2.75;;
37677;SDS011;23517;50.390;8.616;2023-05-29T09:41:12;6.55;;;2.30;;
37677;SDS011;23517;50.390;8.616;2023-05-29T09:43:41;7.22;;;2.92;;
37677;SDS011;23517;50.390;8.616;2023-05-29T09:46:20;5.78;;;2.40;;
37677;SDS011;23517;50.390;8.616;2023-05-29T09:48:51;8.45;;;2.53;;
37677;SDS011;23517;50.390;8.616;2023-05-29T09:51:21;4.45;;;2.40;;
37677;SDS011;23517;50.390;8.616;2023-05-29T09:53:53;6.03;;;2.50;;
37677;SDS011;23517;50.390;8.616;2023-05-29T09:56:23;7.38;;;2.85;;
37677;SDS011;23517;50.390;8.616;2023-05-29T09:58:52;6.75;;;2.60;;
37677;SDS011;23517;50.390;8.616;2023-05-29T10:01:20;4.63;;;2.53;;
37677;SDS011;23517;50.390;8.616;2023-05-29T10:03:47;5.72;;;2.38;;
37677;SDS011;23517;50.390;8.616;2023-05-29T10:06:16;5.05;;;2.55;;
37677;SDS011;23517;50.390;8.616;2023-05-29T10:08:46;5.47;;;2.55;;
37677;SDS011;23517;50.390;8.616;2023-05-29T10:11:18;7.55;;;2.95;;
37677;SDS011;23517;50.390;8.616;2023-05-29T10:13:52;7.18;;;2.78;;
37677;SDS011;23517;50.390;8.616;2023-05-29T10:16:20;5.05;;;2.75;;
37677;SDS011;23517;50.390;8.616;2023-05-29T10:18:55;7.97;;;2.78;;
37677;SDS011;23517;50.390;8.616;2023-05-29T10:21:24;5.43;;;2.55;;
37677;SDS011;23517;50.390;8.616;2023-05-29T10:23:54;7.43;;;2.83;;
37677;SDS011;23517;50.390;8.616;2023-05-29T10:26:24;7.35;;;2.70;;
37677;SDS011;23517;50.390;8.616;2023-05-29T10:31:43;4.90;;;2.60;;
37677;SDS011;23517;50.390;8.616;2023-05-29T10:34:31;10.02;;;3.03;;
37677;SDS011;23517;50.390;8.616;2023-05-29T10:37:24;4.13;;;2.45;;
37677;SDS011;23517;50.390;8.616;2023-05-29T10:40:09;7.18;;;2.72;;
37677;SDS011;23517;50.390;8.616;2023-05-29T10:46:01;6.72;;;2.55;;
37677;SDS011;23517;50.390;8.616;2023-05-29T10:50:42;5.47;;;2.80;;
37677;SDS011;23517;50.390;8.616;2023-05-29T10:53:14;8.07;;;2.65;;
37677;SDS011;23517;50.390;8.616;2023-05-29T10:55:50;5.45;;;2.60;;
37677;SDS011;23517;50.390;8.616;2023-05-29T10:58:18;6.20;;;2.70;;
37677;SDS011;23517;50.390;8.616;2023-05-29T11:00:49;5.80;;;2.80;;
37677;SDS011;23517;50.390;8.616;2023-05-29T11:03:20;8.20;;;2.60;;
37677;SDS011;23517;50.390;8.616;2023-05-29T11:08:34;6.22;;;2.58;;
37677;SDS011;23517;50.390;8.616;2023-05-29T11:11:30;9.20;;;2.75;;
37677;SDS011;23517;50.390;8.616;2023-05-29T11:14:03;6.57;;;2.67;;
37677;SDS011;23517;50.390;8.616;2023-05-29T11:19:03;5.93;;;2.88;;
37677;SDS011;23517;50.390;8.616;2023-05-29T11:21:44;6.55;;;2.92;;
37677;SDS011;23517;50.390;8.616;2023-05-29T11:24:23;6.20;;;2.58;;
37677;SDS011;23517;50.390;8.616;2023-05-29T11:26:51;8.45;;;2.72;;
37677;SDS011;23517;50.390;8.616;2023-05-29T11:29:23;7.75;;;2.60;;
37677;SDS011;23517;50.390;8.616;2023-05-29T11:32:03;6.22;;;2.55;;
37677;SDS011;23517;50.390;8.616;2023-05-29T11:34:31;6.07;;;2.50;;
37677;SDS011;23517;50.390;8.616;2023-05-29T11:37:04;8.63;;;2.60;;
37677;SDS011;23517;50.390;8.616;2023-05-29T11:39:36;4.15;;;2.40;;
37677;SDS011;23517;50.390;8.616;2023-05-29T11:42:03;5.93;;;2.85;;
37677;SDS011;23517;50.390;8.616;2023-05-29T11:44:32;7.50;;;2.55;;
37677;SDS011;23517;50.390;8.616;2023-05-29T11:47:05;5.55;;;2.08;;
37677;SDS011;23517;50.390;8.616;2023-05-29T11:49:34;4.60;;;2.30;;
37677;SDS011;23517;50.390;8.616;2023-05-29T11:52:12;4.30;;;2.60;;
37677;SDS011;23517;50.390;8.616;2023-05-29T11:54:42;3.90;;;2.33;;
37677;SDS011;23517;50.390;8.616;2023-05-29T11:57:18;5.75;;;2.55;;
37677;SDS011;23517;50.390;8.616;2023-05-29T11:59:47;5.78;;;2.63;;
37677;SDS011;23517;50.390;8.616;2023-05-29T12:02:17;5.82;;;2.17;;
37677;SDS011;23517;50.390;8.616;2023-05-29T12:04:43;4.00;;;2.58;;
37677;SDS011;23517;50.390;8.616;2023-05-29T12:07:26;4.70;;;2.20;;
37677;SDS011;23517;50.390;8.616;2023-05-29T12:09:52;6.70;;;2.80;;
37677;SDS011;23517;50.390;8.616;2023-05-29T12:12:23;5.88;;;2.10;;
37677;SDS011;23517;50.390;8.616;2023-05-29T12:14:50;6.38;;;2.35;;
37677;SDS011;23517;50.390;8.616;2023-05-29T12:17:18;6.20;;;2.63;;
37677;SDS011;23517;50.390;8.616;2023-05-29T12:19:46;5.07;;;2.60;;
37677;SDS011;23517;50.390;8.616;2023-05-29T12:22:13;6.50;;;2.88;;
37677;SDS011;23517;50.390;8.616;2023-05-29T12:24:39;6.47;;;2.70;;
37677;SDS011;23517;50.390;8.616;2023-05-29T12:27:09;5.65;;;2.90;;
37677;SDS011;23517;50.390;8.616;2023-05-29T12:29:36;4.60;;;2.58;;
37677;SDS011;23517;50.390;8.616;2023-05-29T12:32:02;5.78;;;2.70;;
37677;SDS011;23517;50.390;8.616;2023-05-29T12:34:36;6.88;;;2.38;;
37677;SDS011;23517;50.390;8.616;2023-05-29T12:37:06;6.55;;;2.45;;
37677;SDS011;23517;50.390;8.616;2023-05-29T12:39:39;5.60;;;2.40;;
37677;SDS011;23517;50.390;8.616;2023-05-29T12:42:08;5.47;;;2.67;;
37677;SDS011;23517;50.390;8.616;2023-05-29T12:44:36;6.15;;;2.58;;
37677;SDS011;23517;50.390;8.616;2023-05-29T12:47:04;3.85;;;2.58;;
37677;SDS011;23517;50.390;8.616;2023-05-29T12:49:35;5.07;;;2.95;;
37677;SDS011;23517;50.390;8.616;2023-05-29T12:52:05;6.72;;;2.63;;
37677;SDS011;23517;50.390;8.616;2023-05-29T12:54:34;6.85;;;2.55;;
37677;SDS011;23517;50.390;8.616;2023-05-29T12:57:00;7.47;;;2.60;;
37677;SDS011;23517;50.390;8.616;2023-05-29T12:59:27;4.03;;;2.10;;
37677;SDS011;23517;50.390;8.616;2023-05-29T13:01:54;6.95;;;2.90;;
37677;SDS011;23517;50.390;8.616;2023-05-29T13:04:21;3.05;;;2.22;;
37677;SDS011;23517;50.390;8.616;2023-05-29T13:06:48;8.40;;;2.47;;
37677;SDS011;23517;50.390;8.616;2023-05-29T13:09:19;4.90;;;2.40;;
37677;SDS011;23517;50.390;8.616;2023-05-29T13:11:46;10.80;;;2.70;;
37677;SDS011;23517;50.390;8.616;2023-05-29T13:14:13;9.38;;;2.80;;
37677;SDS011;23517;50.390;8.616;2023-05-29T13:16:40;5.85;;;2.92;;
37677;SDS011;23517;50.390;8.616;2023-05-29T13:19:06;8.90;;;2.80;;
37677;SDS011;23517;50.390;8.616;2023-05-29T13:21:33;5.53;;;2.67;;
37677;SDS011;23517;50.390;8.616;2023-05-29T13:24:01;4.22;;;2.50;;
37677;SDS011;23517;50.390;8.616;2023-05-29T13:26:28;4.95;;;2.50;;
37677;SDS011;23517;50.390;8.616;2023-05-29T13:28:55;6.30;;;2.55;;
37677;SDS011;23517;50.390;8.616;2023-05-29T13:31:22;4.10;;;2.47;;
37677;SDS011;23517;50.390;8.616;2023-05-29T13:33:49;5.78;;;2.70;;
37677;SDS011;23517;50.390;8.616;2023-05-29T13:36:15;5.63;;;2.60;;
37677;SDS011;23517;50.390;8.616;2023-05-29T13:38:42;5.57;;;2.70;;
37677;SDS011;23517;50.390;8.616;2023-05-29T13:41:10;5.28;;;2.53;;
37677;SDS011;23517;50.390;8.616;2023-05-29T13:43:36;9.10;;;2.80;;
37677;SDS011;23517;50.390;8.616;2023-05-29T13:46:10;8.57;;;2.88;;
37677;SDS011;23517;50.390;8.616;2023-05-29T13:48:40;7.68;;;2.63;;
37677;SDS011;23517;50.390;8.616;2023-05-29T13:51:07;9.30;;;2.42;;
37677;SDS011;23517;50.390;8.616;2023-05-29T13:53:34;6.63;;;2.42;;
37677;SDS011;23517;50.390;8.616;2023-05-29T13:56:01;7.22;;;2.45;;
37677;SDS011;23517;50.390;8.616;2023-05-29T13:58:27;4.55;;;2.30;;
37677;SDS011;23517;50.390;8.616;2023-05-29T14:00:54;3.33;;;2.25;;
37677;SDS011;23517;50.390;8.616;2023-05-29T14:03:21;6.35;;;2.30;;
37677;SDS011;23517;50.390;8.616;2023-05-29T14:05:51;8.38;;;2.30;;
37677;SDS011;23517;50.390;8.616;2023-05-29T14:08:18;11.27;;;2.60;;
37677;SDS011;23517;50.390;8.616;2023-05-29T14:10:44;8.88;;;2.83;;
37677;SDS011;23517;50.390;8.616;2023-05-29T14:13:11;4.18;;;2.38;;
37677;SDS011;23517;50.390;8.616;2023-05-29T14:15:38;3.63;;;2.40;;
37677;SDS011;23517;50.390;8.616;2023-05-29T14:18:06;4.18;;;2.33;;
37677;SDS011;23517;50.390;8.616;2023-05-29T14:20:34;5.00;;;2.60;;
37677;SDS011;23517;50.390;8.616;2023-05-29T14:23:01;6.68;;;2.50;;
37677;SDS011;23517;50.390;8.616;2023-05-29T14:25:28;6.05;;;2.60;;
37677;SDS011;23517;50.390;8.616;2023-05-29T14:27:54;5.30;;;2.80;;
37677;SDS011;23517;50.390;8.616;2023-05-29T14:30:21;4.10;;;2.40;;
37677;SDS011;23517;50.390;8.616;2023-05-29T14:32:48;8.75;;;2.72;;
37677;SDS011;23517;50.390;8.616;2023-05-29T14:35:14;5.72;;;2.20;;
37677;SDS011;23517;50.390;8.616;2023-05-29T14:37:41;7.45;;;2.65;;
37677;SDS011;23517;50.390;8.616;2023-05-29T14:40:08;6.50;;;2.40;;
37677;SDS011;23517;50.390;8.616;2023-05-29T14:42:38;4.25;;;2.40;;
37677;SDS011;23517;50.390;8.616;2023-05-29T14:45:05;6.85;;;2.47;;
37677;SDS011;23517;50.390;8.616;2023-05-29T14:47:33;5.18;;;2.20;;
37677;SDS011;23517;50.390;8.616;2023-05-29T14:50:01;4.50;;;2.55;;
37677;SDS011;23517;50.390;8.616;2023-05-29T14:52:28;4.70;;;2.58;;
37677;SDS011;23517;50.390;8.616;2023-05-29T14:54:54;3.80;;;2.50;;
37677;SDS011;23517;50.390;8.616;2023-05-29T14:57:21;5.20;;;2.88;;
37677;SDS011;23517;50.390;8.616;2023-05-29T14:59:48;6.65;;;2.85;;
37677;SDS011;23517;50.390;8.616;2023-05-29T15:02:16;4.75;;;2.58;;
37677;SDS011;23517;50.390;8.616;2023-05-29T15:04:43;4.10;;;2.70;;
37677;SDS011;23517;50.390;8.616;2023-05-29T15:07:10;6.63;;;2.45;;
37677;SDS011;23517;50.390;8.616;2023-05-29T15:09:36;4.68;;;2.40;;
37677;SDS011;23517;50.390;8.616;2023-05-29T15:12:03;7.18;;;2.60;;
37677;SDS011;23517;50.390;8.616;2023-05-29T15:14:30;6.38;;;2.88;;